PWSweather.com
Personal Weather Stations
Station Observations
PICKERING
North Yorkshire, PickeringGB

North YorkshirePickeringGB

Lat: 54.2494, Lon: -0.7725

Elevation: 192

Station Type: Oregon Scientific WMR100

http://www.yorkshirewalker.co.uk/weather/

High Low Average
Temperature 42.8°F6.0°C 25.7°F-3.5°C 33.0°F0.6°C
Dew Point 30.2°F-1.0°C 17.6°F-8.0°C 24.7°F-4.1°C
Winds 11.4 mph 18.3 kmh Calm Calm 5.0 mph W8.0 kmh W
Wind Gusts 18.1 mph29.1 kmh -- 9.0 mph14.5 kmh
Humidity 85% 59% 72%
Pressure 29.33 in993.2 mb 28.77 in974.3 mb -
Precipitation 0.00 in0.0 mm - -
Hour Temp Dew Point Humidity Winds Wind Gusts Pressure Precip Precip Rate Daily Precip Total
12:00 AM 34.2°F1.2°C 30.2°F-1.0°C 85% 7.8 mph NW12.6 kmh NW 14.5 mph23.3 kmh 28.97 in981.0 mb 0.11 in2.8 mm 0.00 in0.0 mm 0.11 in2.8 mm
12:05 AM 34.2°F1.2°C 30.2°F-1.0°C 85% 7.8 mph NW12.6 kmh NW 14.5 mph23.3 kmh 28.97 in981.0 mb 0.11 in2.8 mm 0.00 in0.0 mm 0.11 in2.8 mm
12:10 AM 34.2°F1.2°C 30.2°F-1.0°C 85% 6.3 mph NW10.1 kmh NW 10.5 mph16.9 kmh 28.77 in974.3 mb 0.11 in2.8 mm 0.00 in0.0 mm 0.11 in2.8 mm
12:15 AM 34.2°F1.2°C 30.2°F-1.0°C 85% 7.6 mph NW12.2 kmh NW 13.0 mph20.9 kmh 28.77 in974.3 mb 0.11 in2.8 mm 0.00 in0.0 mm 0.11 in2.8 mm
12:20 AM 34.0°F1.1°C 30.2°F-1.0°C 85% 8.2 mph NW13.2 kmh NW 13.0 mph20.9 kmh 28.77 in974.3 mb 0.11 in2.8 mm 0.00 in0.0 mm 0.11 in2.8 mm
12:25 AM 34.0°F1.1°C 30.2°F-1.0°C 85% 7.1 mph NW11.4 kmh NW 13.0 mph20.9 kmh 28.97 in981.0 mb 0.11 in2.8 mm 0.00 in0.0 mm 0.11 in2.8 mm
12:30 AM 34.0°F1.1°C 30.2°F-1.0°C 85% 8.9 mph NW14.3 kmh NW 18.1 mph29.1 kmh 28.97 in981.0 mb 0.11 in2.8 mm 0.00 in0.0 mm 0.11 in2.8 mm
12:35 AM 34.0°F1.1°C 30.2°F-1.0°C 85% 11.0 mph NW17.7 kmh NW 18.1 mph29.1 kmh 28.97 in981.0 mb 0.11 in2.8 mm 0.00 in0.0 mm 0.11 in2.8 mm
12:40 AM 33.8°F1.0°C 30.2°F-1.0°C 85% 9.9 mph NW15.9 kmh NW 14.8 mph23.8 kmh 28.97 in981.0 mb 0.11 in2.8 mm 0.00 in0.0 mm 0.11 in2.8 mm
12:45 AM 33.8°F1.0°C 30.2°F-1.0°C 85% 7.7 mph NW12.4 kmh NW 12.5 mph20.1 kmh 28.97 in981.0 mb 0.00 in0.0 mm 0.00 in0.0 mm 0.11 in2.8 mm
12:50 AM 33.8°F1.0°C 30.2°F-1.0°C 85% 7.6 mph NNW12.2 kmh NNW 15.4 mph24.8 kmh 28.97 in981.0 mb 0.00 in0.0 mm 0.00 in0.0 mm 0.11 in2.8 mm
12:55 AM 33.8°F1.0°C 30.2°F-1.0°C 84% 8.7 mph NW14.0 kmh NW 15.4 mph24.8 kmh 28.97 in981.0 mb 0.00 in0.0 mm 0.00 in0.0 mm 0.11 in2.8 mm
01:00 AM 34.0°F1.1°C 30.2°F-1.0°C 84% 8.7 mph NW14.0 kmh NW 14.8 mph23.8 kmh 28.97 in981.0 mb 0.00 in0.0 mm 0.00 in0.0 mm 0.11 in2.8 mm
01:05 AM 34.0°F1.1°C 30.2°F-1.0°C 84% 10.6 mph NNW17.1 kmh NNW 14.8 mph23.8 kmh 28.97 in981.0 mb 0.00 in0.0 mm 0.00 in0.0 mm 0.11 in2.8 mm
01:10 AM 33.8°F1.0°C 30.2°F-1.0°C 84% 11.1 mph NNW17.9 kmh NNW 14.8 mph23.8 kmh 29.03 in983.1 mb 0.00 in0.0 mm 0.00 in0.0 mm 0.11 in2.8 mm
01:15 AM 33.8°F1.0°C 30.2°F-1.0°C 84% 11.3 mph NW18.2 kmh NW 17.2 mph27.7 kmh 29.03 in983.1 mb 0.00 in0.0 mm 0.00 in0.0 mm 0.11 in2.8 mm
01:20 AM 33.8°F1.0°C 30.2°F-1.0°C 84% 11.3 mph NW18.2 kmh NW 17.2 mph27.7 kmh 29.03 in983.1 mb 0.00 in0.0 mm 0.00 in0.0 mm 0.11 in2.8 mm
01:25 AM 33.6°F0.9°C 30.2°F-1.0°C 84% 10.9 mph NW17.5 kmh NW 14.8 mph23.8 kmh 29.03 in983.1 mb 0.00 in0.0 mm 0.00 in0.0 mm 0.11 in2.8 mm
01:30 AM 33.6°F0.9°C 30.2°F-1.0°C 84% 10.3 mph NW16.6 kmh NW 14.8 mph23.8 kmh 29.03 in983.1 mb 0.00 in0.0 mm 0.00 in0.0 mm 0.11 in2.8 mm
01:35 AM 33.6°F0.9°C 30.2°F-1.0°C 84% 9.3 mph NW15.0 kmh NW 13.0 mph20.9 kmh 29.03 in983.1 mb 0.00 in0.0 mm 0.00 in0.0 mm 0.11 in2.8 mm
01:40 AM 33.6°F0.9°C 30.2°F-1.0°C 84% 9.7 mph NW15.6 kmh NW 17.4 mph28.0 kmh 29.06 in984.1 mb 0.00 in0.0 mm 0.00 in0.0 mm 0.11 in2.8 mm
01:45 AM 33.6°F0.9°C 30.2°F-1.0°C 84% 8.9 mph NW14.3 kmh NW 17.4 mph28.0 kmh 29.06 in984.1 mb 0.00 in0.0 mm 0.00 in0.0 mm 0.11 in2.8 mm
01:50 AM 33.8°F1.0°C 30.2°F-1.0°C 84% 9.9 mph NW15.9 kmh NW 12.8 mph20.6 kmh 29.06 in984.1 mb 0.00 in0.0 mm 0.00 in0.0 mm 0.11 in2.8 mm
01:55 AM 34.0°F1.1°C 30.2°F-1.0°C 83% 10.2 mph NW16.4 kmh NW 14.8 mph23.8 kmh 29.06 in984.1 mb 0.00 in0.0 mm 0.00 in0.0 mm 0.11 in2.8 mm
02:00 AM 33.8°F1.0°C 30.2°F-1.0°C 83% 9.8 mph NW15.8 kmh NW 14.8 mph23.8 kmh 29.06 in984.1 mb 0.00 in0.0 mm 0.00 in0.0 mm 0.11 in2.8 mm
02:05 AM 33.6°F0.9°C 30.2°F-1.0°C 83% 9.2 mph NW14.8 kmh NW 13.2 mph21.2 kmh 29.06 in984.1 mb 0.00 in0.0 mm 0.00 in0.0 mm 0.11 in2.8 mm
02:10 AM 33.8°F1.0°C 30.2°F-1.0°C 83% 9.6 mph NW15.4 kmh NW 14.8 mph23.8 kmh 29.06 in984.1 mb 0.00 in0.0 mm 0.00 in0.0 mm 0.11 in2.8 mm
02:15 AM 33.4°F0.8°C 30.2°F-1.0°C 83% 9.5 mph NNW15.3 kmh NNW 14.8 mph23.8 kmh 29.06 in984.1 mb 0.00 in0.0 mm 0.00 in0.0 mm 0.11 in2.8 mm
02:20 AM 33.4°F0.8°C 30.2°F-1.0°C 83% 8.9 mph NW14.3 kmh NW 14.1 mph22.7 kmh 29.06 in984.1 mb 0.00 in0.0 mm 0.00 in0.0 mm 0.11 in2.8 mm
02:25 AM 33.3°F0.7°C 28.4°F-2.0°C 83% 10.5 mph NW16.9 kmh NW 16.8 mph27.0 kmh 29.06 in984.1 mb 0.00 in0.0 mm 0.00 in0.0 mm 0.11 in2.8 mm
02:30 AM 33.3°F0.7°C 30.2°F-1.0°C 84% 10.6 mph NW17.1 kmh NW 16.8 mph27.0 kmh 29.06 in984.1 mb 0.00 in0.0 mm 0.00 in0.0 mm 0.11 in2.8 mm
02:35 AM 33.3°F0.7°C 30.2°F-1.0°C 84% 8.0 mph NW12.9 kmh NW 13.6 mph21.9 kmh 29.06 in984.1 mb 0.00 in0.0 mm 0.00 in0.0 mm 0.11 in2.8 mm
02:40 AM 33.3°F0.7°C 30.2°F-1.0°C 84% 8.0 mph NNW12.9 kmh NNW 11.4 mph18.3 kmh 29.06 in984.1 mb 0.00 in0.0 mm 0.00 in0.0 mm 0.11 in2.8 mm
02:45 AM 33.3°F0.7°C 30.2°F-1.0°C 84% 8.1 mph NNW13.0 kmh NNW 11.4 mph18.3 kmh 29.06 in984.1 mb 0.00 in0.0 mm 0.00 in0.0 mm 0.11 in2.8 mm
02:50 AM 33.1°F0.6°C 30.2°F-1.0°C 84% 8.2 mph NNW13.2 kmh NNW 13.2 mph21.2 kmh 29.06 in984.1 mb 0.00 in0.0 mm 0.00 in0.0 mm 0.11 in2.8 mm
02:55 AM 33.3°F0.7°C 30.2°F-1.0°C 84% 7.9 mph NNW12.7 kmh NNW 13.2 mph21.2 kmh 29.06 in984.1 mb 0.00 in0.0 mm 0.00 in0.0 mm 0.11 in2.8 mm
03:00 AM 33.3°F0.7°C 30.2°F-1.0°C 84% 8.0 mph NW12.9 kmh NW 10.3 mph16.6 kmh 29.06 in984.1 mb 0.00 in0.0 mm 0.00 in0.0 mm 0.11 in2.8 mm
03:05 AM 33.3°F0.7°C 30.2°F-1.0°C 84% 7.9 mph NW12.7 kmh NW 10.3 mph16.6 kmh 29.06 in984.1 mb 0.00 in0.0 mm 0.00 in0.0 mm 0.11 in2.8 mm
03:10 AM 33.4°F0.8°C 30.2°F-1.0°C 83% 7.9 mph NNW12.7 kmh NNW 14.5 mph23.3 kmh 29.06 in984.1 mb 0.00 in0.0 mm 0.00 in0.0 mm 0.11 in2.8 mm
03:15 AM 33.4°F0.8°C 30.2°F-1.0°C 83% 8.4 mph NNW13.5 kmh NNW 14.5 mph23.3 kmh 29.06 in984.1 mb 0.00 in0.0 mm 0.00 in0.0 mm 0.11 in2.8 mm
03:20 AM 33.4°F0.8°C 30.2°F-1.0°C 83% 9.0 mph NNW14.5 kmh NNW 17.4 mph28.0 kmh 29.06 in984.1 mb 0.00 in0.0 mm 0.00 in0.0 mm 0.11 in2.8 mm
03:25 AM 33.4°F0.8°C 30.2°F-1.0°C 83% 8.9 mph NNW14.3 kmh NNW 17.4 mph28.0 kmh 29.06 in984.1 mb 0.00 in0.0 mm 0.00 in0.0 mm 0.11 in2.8 mm
03:30 AM 33.4°F0.8°C 30.2°F-1.0°C 83% 8.8 mph NNW14.2 kmh NNW 15.4 mph24.8 kmh 29.06 in984.1 mb 0.00 in0.0 mm 0.00 in0.0 mm 0.11 in2.8 mm
03:35 AM 33.6°F0.9°C 30.2°F-1.0°C 83% 9.2 mph NNW14.8 kmh NNW 13.2 mph21.2 kmh 29.06 in984.1 mb 0.00 in0.0 mm 0.00 in0.0 mm 0.11 in2.8 mm
03:40 AM 33.4°F0.8°C 30.2°F-1.0°C 82% 9.5 mph NW15.3 kmh NW 13.0 mph20.9 kmh 29.06 in984.1 mb 0.00 in0.0 mm 0.00 in0.0 mm 0.11 in2.8 mm
03:45 AM 33.4°F0.8°C 30.2°F-1.0°C 82% 8.1 mph NW13.0 kmh NW 13.0 mph20.9 kmh 29.06 in984.1 mb 0.00 in0.0 mm 0.00 in0.0 mm 0.11 in2.8 mm
03:50 AM 33.4°F0.8°C 30.2°F-1.0°C 82% 7.2 mph NNW11.6 kmh NNW 13.2 mph21.2 kmh 29.06 in984.1 mb 0.00 in0.0 mm 0.00 in0.0 mm 0.11 in2.8 mm
03:55 AM 33.4°F0.8°C 30.2°F-1.0°C 82% 8.7 mph NNW14.0 kmh NNW 16.3 mph26.2 kmh 29.09 in985.1 mb 0.00 in0.0 mm 0.00 in0.0 mm 0.11 in2.8 mm
04:00 AM 33.6°F0.9°C 30.2°F-1.0°C 82% 10.6 mph NNW17.1 kmh NNW 17.7 mph28.5 kmh 29.09 in985.1 mb 0.00 in0.0 mm 0.00 in0.0 mm 0.11 in2.8 mm
04:05 AM 33.6°F0.9°C 30.2°F-1.0°C 82% 11.4 mph NNW18.3 kmh NNW 17.7 mph28.5 kmh 29.09 in985.1 mb 0.00 in0.0 mm 0.00 in0.0 mm 0.11 in2.8 mm
04:10 AM 33.4°F0.8°C 28.4°F-2.0°C 81% 10.3 mph NNW16.6 kmh NNW 17.7 mph28.5 kmh 29.09 in985.1 mb 0.00 in0.0 mm 0.00 in0.0 mm 0.11 in2.8 mm
04:15 AM 33.3°F0.7°C 28.4°F-2.0°C 81% 8.5 mph NW13.7 kmh NW 12.3 mph19.8 kmh 29.09 in985.1 mb 0.00 in0.0 mm 0.00 in0.0 mm 0.11 in2.8 mm
04:20 AM 33.4°F0.8°C 28.4°F-2.0°C 81% 8.2 mph NW13.2 kmh NW 14.3 mph23.0 kmh 29.09 in985.1 mb 0.00 in0.0 mm 0.00 in0.0 mm 0.11 in2.8 mm
04:25 AM 33.4°F0.8°C 28.4°F-2.0°C 81% 9.2 mph NW14.8 kmh NW 14.8 mph23.8 kmh 29.09 in985.1 mb 0.00 in0.0 mm 0.00 in0.0 mm 0.11 in2.8 mm
04:30 AM 33.4°F0.8°C 28.4°F-2.0°C 81% 9.9 mph NW15.9 kmh NW 14.8 mph23.8 kmh 29.09 in985.1 mb 0.00 in0.0 mm 0.00 in0.0 mm 0.11 in2.8 mm
04:35 AM 33.4°F0.8°C 28.4°F-2.0°C 81% 9.6 mph NW15.4 kmh NW 14.5 mph23.3 kmh 29.09 in985.1 mb 0.00 in0.0 mm 0.00 in0.0 mm 0.11 in2.8 mm
04:40 AM 33.6°F0.9°C 28.4°F-2.0°C 80% 8.3 mph NW13.4 kmh NW 14.5 mph23.3 kmh 29.09 in985.1 mb 0.00 in0.0 mm 0.00 in0.0 mm 0.11 in2.8 mm
04:45 AM 33.4°F0.8°C 28.4°F-2.0°C 80% 9.2 mph NW14.8 kmh NW 14.8 mph23.8 kmh 29.09 in985.1 mb 0.00 in0.0 mm 0.00 in0.0 mm 0.11 in2.8 mm
04:50 AM 33.4°F0.8°C 28.4°F-2.0°C 80% 10.3 mph NW16.6 kmh NW 14.8 mph23.8 kmh 29.09 in985.1 mb 0.00 in0.0 mm 0.00 in0.0 mm 0.11 in2.8 mm
04:55 AM 33.4°F0.8°C 28.4°F-2.0°C 80% 10.5 mph NW16.9 kmh NW 14.3 mph23.0 kmh 29.09 in985.1 mb 0.00 in0.0 mm 0.00 in0.0 mm 0.11 in2.8 mm
05:00 AM 33.4°F0.8°C 28.4°F-2.0°C 80% 10.9 mph NW17.5 kmh NW 13.6 mph21.9 kmh 29.09 in985.1 mb 0.00 in0.0 mm 0.00 in0.0 mm 0.11 in2.8 mm
05:05 AM 33.3°F0.7°C 28.4°F-2.0°C 79% 8.9 mph NW14.3 kmh NW 12.1 mph19.5 kmh 29.09 in985.1 mb 0.00 in0.0 mm 0.00 in0.0 mm 0.11 in2.8 mm
05:10 AM 33.3°F0.7°C 28.4°F-2.0°C 79% 8.7 mph NW14.0 kmh NW 14.5 mph23.3 kmh 29.06 in984.1 mb 0.00 in0.0 mm 0.00 in0.0 mm 0.11 in2.8 mm
05:15 AM 33.4°F0.8°C 28.4°F-2.0°C 79% 9.9 mph NNW15.9 kmh NNW 16.1 mph25.9 kmh 29.06 in984.1 mb 0.00 in0.0 mm 0.00 in0.0 mm 0.11 in2.8 mm
05:20 AM 33.3°F0.7°C 28.4°F-2.0°C 79% 9.7 mph NNW15.6 kmh NNW 16.1 mph25.9 kmh 29.06 in984.1 mb 0.00 in0.0 mm 0.00 in0.0 mm 0.11 in2.8 mm
05:25 AM 33.3°F0.7°C 28.4°F-2.0°C 79% 10.0 mph NW16.1 kmh NW 16.3 mph26.2 kmh 29.09 in985.1 mb 0.00 in0.0 mm 0.00 in0.0 mm 0.11 in2.8 mm
05:30 AM 33.1°F0.6°C 28.4°F-2.0°C 79% 9.8 mph NW15.8 kmh NW 16.3 mph26.2 kmh 29.09 in985.1 mb 0.00 in0.0 mm 0.00 in0.0 mm 0.11 in2.8 mm
05:35 AM 33.1°F0.6°C 28.4°F-2.0°C 79% 7.8 mph NW12.6 kmh NW 11.0 mph17.7 kmh 29.09 in985.1 mb 0.00 in0.0 mm 0.00 in0.0 mm 0.11 in2.8 mm
05:40 AM 33.3°F0.7°C 28.4°F-2.0°C 79% 8.9 mph NNW14.3 kmh NNW 13.0 mph20.9 kmh 29.12 in986.1 mb 0.00 in0.0 mm 0.00 in0.0 mm 0.11 in2.8 mm
05:45 AM 33.1°F0.6°C 28.4°F-2.0°C 79% 9.2 mph NNW14.8 kmh NNW 13.0 mph20.9 kmh 29.12 in986.1 mb 0.00 in0.0 mm 0.00 in0.0 mm 0.11 in2.8 mm
05:50 AM 33.3°F0.7°C 28.4°F-2.0°C 79% 7.4 mph NW11.9 kmh NW 9.8 mph15.8 kmh 29.12 in986.1 mb 0.00 in0.0 mm 0.00 in0.0 mm 0.11 in2.8 mm
05:55 AM 33.3°F0.7°C 28.4°F-2.0°C 79% 8.8 mph NW14.2 kmh NW 14.5 mph23.3 kmh 29.09 in985.1 mb 0.00 in0.0 mm 0.00 in0.0 mm 0.11 in2.8 mm
06:00 AM 33.3°F0.7°C 26.6°F-3.0°C 78% 9.7 mph WNW15.6 kmh WNW 14.5 mph23.3 kmh 29.09 in985.1 mb 0.00 in0.0 mm 0.00 in0.0 mm 0.11 in2.8 mm
06:05 AM 33.1°F0.6°C 26.6°F-3.0°C 78% 8.0 mph NW12.9 kmh NW 10.3 mph16.6 kmh 29.09 in985.1 mb 0.00 in0.0 mm 0.00 in0.0 mm 0.11 in2.8 mm
06:10 AM 33.1°F0.6°C 26.6°F-3.0°C 78% 8.2 mph NW13.2 kmh NW 10.7 mph17.2 kmh 29.12 in986.1 mb 0.00 in0.0 mm 0.00 in0.0 mm 0.11 in2.8 mm
06:15 AM 32.9°F0.5°C 26.6°F-3.0°C 78% 6.9 mph NW11.1 kmh NW 10.7 mph17.2 kmh 29.12 in986.1 mb 0.00 in0.0 mm 0.00 in0.0 mm 0.11 in2.8 mm
06:20 AM 32.9°F0.5°C 26.6°F-3.0°C 78% 6.4 mph NW10.3 kmh NW 12.8 mph20.6 kmh 29.12 in986.1 mb 0.00 in0.0 mm 0.00 in0.0 mm 0.11 in2.8 mm
06:25 AM 32.7°F0.4°C 26.6°F-3.0°C 78% 7.2 mph NW11.6 kmh NW 12.8 mph20.6 kmh 29.12 in986.1 mb 0.00 in0.0 mm 0.00 in0.0 mm 0.11 in2.8 mm
06:30 AM 32.5°F0.3°C 26.6°F-3.0°C 78% 7.5 mph NW12.1 kmh NW 12.5 mph20.1 kmh 29.12 in986.1 mb 0.00 in0.0 mm 0.00 in0.0 mm 0.11 in2.8 mm
06:35 AM 32.7°F0.4°C 26.6°F-3.0°C 78% 7.7 mph NW12.4 kmh NW 10.5 mph16.9 kmh 29.12 in986.1 mb 0.00 in0.0 mm 0.00 in0.0 mm 0.11 in2.8 mm
06:40 AM 32.7°F0.4°C 26.6°F-3.0°C 78% 8.1 mph NW13.0 kmh NW 15.4 mph24.8 kmh 29.12 in986.1 mb 0.00 in0.0 mm 0.00 in0.0 mm 0.11 in2.8 mm
06:45 AM 32.7°F0.4°C 26.6°F-3.0°C 78% 8.7 mph NW14.0 kmh NW 15.4 mph24.8 kmh 29.12 in986.1 mb 0.00 in0.0 mm 0.00 in0.0 mm 0.11 in2.8 mm
06:50 AM 32.7°F0.4°C 26.6°F-3.0°C 78% 9.9 mph NW15.9 kmh NW 15.4 mph24.8 kmh 29.12 in986.1 mb 0.00 in0.0 mm 0.00 in0.0 mm 0.11 in2.8 mm
06:55 AM 32.7°F0.4°C 26.6°F-3.0°C 77% 9.9 mph NW15.9 kmh NW 14.8 mph23.8 kmh 29.12 in986.1 mb 0.00 in0.0 mm 0.00 in0.0 mm 0.11 in2.8 mm
07:00 AM 32.4°F0.2°C 26.6°F-3.0°C 77% 8.7 mph NW14.0 kmh NW 14.8 mph23.8 kmh 29.12 in986.1 mb 0.00 in0.0 mm 0.00 in0.0 mm 0.11 in2.8 mm
07:05 AM 32.5°F0.3°C 26.6°F-3.0°C 77% 7.5 mph NNW12.1 kmh NNW 12.8 mph20.6 kmh 29.12 in986.1 mb 0.00 in0.0 mm 0.00 in0.0 mm 0.11 in2.8 mm
07:10 AM 32.4°F0.2°C 26.6°F-3.0°C 77% 6.9 mph NNW11.1 kmh NNW 16.8 mph27.0 kmh 29.15 in987.1 mb 0.00 in0.0 mm 0.00 in0.0 mm 0.11 in2.8 mm
07:15 AM 32.4°F0.2°C 26.6°F-3.0°C 77% 8.2 mph NW13.2 kmh NW 16.8 mph27.0 kmh 29.15 in987.1 mb 0.00 in0.0 mm 0.00 in0.0 mm 0.11 in2.8 mm
07:20 AM 32.2°F0.1°C 26.6°F-3.0°C 77% 7.5 mph NW12.1 kmh NW 12.5 mph20.1 kmh 29.15 in987.1 mb 0.00 in0.0 mm 0.00 in0.0 mm 0.11 in2.8 mm
07:25 AM 32.4°F0.2°C 26.6°F-3.0°C 77% 6.4 mph NW10.3 kmh NW 10.7 mph17.2 kmh 29.18 in988.1 mb 0.00 in0.0 mm 0.00 in0.0 mm 0.11 in2.8 mm
07:30 AM 32.2°F0.1°C 26.6°F-3.0°C 76% 8.1 mph NW13.0 kmh NW 13.0 mph20.9 kmh 29.18 in988.1 mb 0.00 in0.0 mm 0.00 in0.0 mm 0.11 in2.8 mm
07:35 AM 32.4°F0.2°C 26.6°F-3.0°C 76% 8.9 mph NW14.3 kmh NW 13.6 mph21.9 kmh 29.18 in988.1 mb 0.00 in0.0 mm 0.00 in0.0 mm 0.11 in2.8 mm
07:40 AM 32.2°F0.1°C 26.6°F-3.0°C 76% 9.5 mph WNW15.3 kmh WNW 15.2 mph24.5 kmh 29.18 in988.1 mb 0.00 in0.0 mm 0.00 in0.0 mm 0.11 in2.8 mm
07:45 AM 32.2°F0.1°C 26.6°F-3.0°C 76% 8.6 mph WNW13.8 kmh WNW 15.2 mph24.5 kmh 29.18 in988.1 mb 0.00 in0.0 mm 0.00 in0.0 mm 0.11 in2.8 mm
07:50 AM 32.0°F0.0°C 23.0°F-5.0°C 75% 7.7 mph NW12.4 kmh NW 13.6 mph21.9 kmh 29.18 in988.1 mb 0.00 in0.0 mm 0.00 in0.0 mm 0.11 in2.8 mm
07:55 AM 32.0°F0.0°C 23.0°F-5.0°C 76% 6.9 mph NW11.1 kmh NW 13.6 mph21.9 kmh 29.18 in988.1 mb 0.00 in0.0 mm 0.00 in0.0 mm 0.11 in2.8 mm
08:00 AM 32.0°F0.0°C 23.0°F-5.0°C 75% 7.3 mph NW11.7 kmh NW 11.0 mph17.7 kmh 29.18 in988.1 mb 0.00 in0.0 mm 0.00 in0.0 mm 0.11 in2.8 mm
08:05 AM 31.8°F-0.1°C 23.0°F-5.0°C 75% 8.0 mph NW12.9 kmh NW 11.0 mph17.7 kmh 29.18 in988.1 mb 0.00 in0.0 mm 0.00 in0.0 mm 0.11 in2.8 mm
08:10 AM 31.8°F-0.1°C 23.0°F-5.0°C 75% 7.4 mph NW11.9 kmh NW 11.0 mph17.7 kmh 29.18 in988.1 mb 0.00 in0.0 mm 0.00 in0.0 mm 0.11 in2.8 mm
08:15 AM 31.6°F-0.2°C 23.0°F-5.0°C 75% 7.4 mph NW11.9 kmh NW 10.3 mph16.6 kmh 29.18 in988.1 mb 0.00 in0.0 mm 0.00 in0.0 mm 0.11 in2.8 mm
08:20 AM 32.0°F0.0°C 23.0°F-5.0°C 75% 8.0 mph NW12.9 kmh NW 12.3 mph19.8 kmh 29.18 in988.1 mb 0.00 in0.0 mm 0.00 in0.0 mm 0.11 in2.8 mm
08:25 AM 31.8°F-0.1°C 23.0°F-5.0°C 75% 8.5 mph NW13.7 kmh NW 13.0 mph20.9 kmh 29.21 in989.2 mb 0.00 in0.0 mm 0.00 in0.0 mm 0.11 in2.8 mm
08:30 AM 32.0°F0.0°C 23.0°F-5.0°C 75% 7.6 mph NW12.2 kmh NW 13.0 mph20.9 kmh 29.21 in989.2 mb 0.00 in0.0 mm 0.00 in0.0 mm 0.11 in2.8 mm
08:35 AM 32.0°F0.0°C 23.0°F-5.0°C 74% 6.5 mph NW10.5 kmh NW 10.1 mph16.3 kmh 29.21 in989.2 mb 0.00 in0.0 mm 0.00 in0.0 mm 0.11 in2.8 mm
08:40 AM 32.0°F0.0°C 23.0°F-5.0°C 74% 6.5 mph NW10.5 kmh NW 10.3 mph16.6 kmh 29.21 in989.2 mb 0.00 in0.0 mm 0.00 in0.0 mm 0.11 in2.8 mm
08:45 AM 32.0°F0.0°C 23.0°F-5.0°C 74% 7.4 mph NW11.9 kmh NW 10.7 mph17.2 kmh 29.21 in989.2 mb 0.00 in0.0 mm 0.00 in0.0 mm 0.11 in2.8 mm
08:50 AM 32.0°F0.0°C 23.0°F-5.0°C 73% 7.8 mph WNW12.6 kmh WNW 10.7 mph17.2 kmh 29.21 in989.2 mb 0.00 in0.0 mm 0.00 in0.0 mm 0.11 in2.8 mm
08:55 AM 32.0°F0.0°C 23.0°F-5.0°C 73% 8.2 mph NW13.2 kmh NW 12.5 mph20.1 kmh 29.21 in989.2 mb 0.00 in0.0 mm 0.00 in0.0 mm 0.11 in2.8 mm
09:00 AM 32.2°F0.1°C 24.8°F-4.0°C 73% 8.5 mph NW13.7 kmh NW 12.8 mph20.6 kmh 29.21 in989.2 mb 0.00 in0.0 mm 0.00 in0.0 mm 0.11 in2.8 mm
09:05 AM 32.2°F0.1°C 24.8°F-4.0°C 72% 9.1 mph NW14.6 kmh NW 12.8 mph20.6 kmh 29.21 in989.2 mb 0.00 in0.0 mm 0.00 in0.0 mm 0.11 in2.8 mm
09:10 AM 32.0°F0.0°C 23.0°F-5.0°C 72% 6.9 mph NW11.1 kmh NW 12.8 mph20.6 kmh 29.15 in987.1 mb 0.00 in0.0 mm 0.00 in0.0 mm 0.11 in2.8 mm
09:15 AM 32.0°F0.0°C 23.0°F-5.0°C 72% 5.2 mph NW8.4 kmh NW 9.6 mph15.4 kmh 29.15 in987.1 mb 0.00 in0.0 mm 0.00 in0.0 mm 0.11 in2.8 mm
09:20 AM 32.2°F0.1°C 24.8°F-4.0°C 72% 6.8 mph NW10.9 kmh NW 9.8 mph15.8 kmh 29.15 in987.1 mb 0.00 in0.0 mm 0.00 in0.0 mm 0.11 in2.8 mm
09:25 AM 32.2°F0.1°C 24.8°F-4.0°C 72% 7.7 mph NW12.4 kmh NW 9.8 mph15.8 kmh 29.18 in988.1 mb 0.00 in0.0 mm 0.00 in0.0 mm 0.11 in2.8 mm
09:30 AM 32.4°F0.2°C 24.8°F-4.0°C 71% 8.0 mph NW12.9 kmh NW 12.1 mph19.5 kmh 29.18 in988.1 mb 0.00 in0.0 mm 0.00 in0.0 mm 0.11 in2.8 mm
09:35 AM 32.4°F0.2°C 24.8°F-4.0°C 71% 7.7 mph NW12.4 kmh NW 13.2 mph21.2 kmh 29.18 in988.1 mb 0.00 in0.0 mm 0.00 in0.0 mm 0.11 in2.8 mm
09:40 AM 32.4°F0.2°C 24.8°F-4.0°C 71% 7.4 mph NW11.9 kmh NW 13.2 mph21.2 kmh 29.18 in988.1 mb 0.00 in0.0 mm 0.00 in0.0 mm 0.11 in2.8 mm
09:45 AM 32.5°F0.3°C 24.8°F-4.0°C 71% 8.1 mph NW13.0 kmh NW 13.2 mph21.2 kmh 29.18 in988.1 mb 0.00 in0.0 mm 0.00 in0.0 mm 0.11 in2.8 mm
09:50 AM 32.7°F0.4°C 24.8°F-4.0°C 71% 7.8 mph NW12.6 kmh NW 12.8 mph20.6 kmh 29.18 in988.1 mb 0.00 in0.0 mm 0.00 in0.0 mm 0.11 in2.8 mm
09:55 AM 32.9°F0.5°C 24.8°F-4.0°C 71% 8.4 mph NW13.5 kmh NW 12.5 mph20.1 kmh 29.18 in988.1 mb 0.00 in0.0 mm 0.00 in0.0 mm 0.11 in2.8 mm
10:00 AM 33.1°F0.6°C 24.8°F-4.0°C 70% 8.3 mph NW13.4 kmh NW 13.0 mph20.9 kmh 29.18 in988.1 mb 0.00 in0.0 mm 0.00 in0.0 mm 0.11 in2.8 mm
10:05 AM 33.1°F0.6°C 24.8°F-4.0°C 70% 8.2 mph NW13.2 kmh NW 14.3 mph23.0 kmh 29.18 in988.1 mb 0.00 in0.0 mm 0.00 in0.0 mm 0.11 in2.8 mm
10:10 AM 33.3°F0.7°C 24.8°F-4.0°C 70% 7.5 mph NW12.1 kmh NW 14.3 mph23.0 kmh 29.21 in989.2 mb 0.00 in0.0 mm 0.00 in0.0 mm 0.11 in2.8 mm
10:15 AM 33.3°F0.7°C 24.8°F-4.0°C 70% 6.6 mph NW10.6 kmh NW 9.6 mph15.4 kmh 29.21 in989.2 mb 0.00 in0.0 mm 0.00 in0.0 mm 0.11 in2.8 mm
10:20 AM 33.3°F0.7°C 24.8°F-4.0°C 70% 6.1 mph NW9.8 kmh NW 9.6 mph15.4 kmh 29.21 in989.2 mb 0.00 in0.0 mm 0.00 in0.0 mm 0.11 in2.8 mm
10:25 AM 33.6°F0.9°C 24.8°F-4.0°C 70% 6.6 mph NW10.6 kmh NW 15.4 mph24.8 kmh 29.18 in988.1 mb 0.00 in0.0 mm 0.00 in0.0 mm 0.11 in2.8 mm
10:30 AM 33.8°F1.0°C 24.8°F-4.0°C 70% 8.4 mph NW13.5 kmh NW 15.4 mph24.8 kmh 29.18 in988.1 mb 0.00 in0.0 mm 0.00 in0.0 mm 0.11 in2.8 mm
10:35 AM 34.0°F1.1°C 24.8°F-4.0°C 69% 8.4 mph NW13.5 kmh NW 13.2 mph21.2 kmh 29.18 in988.1 mb 0.00 in0.0 mm 0.00 in0.0 mm 0.11 in2.8 mm
10:40 AM 34.2°F1.2°C 24.8°F-4.0°C 69% 8.6 mph NW13.8 kmh NW 13.2 mph21.2 kmh 29.21 in989.2 mb 0.00 in0.0 mm 0.00 in0.0 mm 0.11 in2.8 mm
10:45 AM 34.3°F1.3°C 24.8°F-4.0°C 69% 8.8 mph NW14.2 kmh NW 13.2 mph21.2 kmh 29.21 in989.2 mb 0.00 in0.0 mm 0.00 in0.0 mm 0.11 in2.8 mm
10:50 AM 34.3°F1.3°C 24.8°F-4.0°C 69% 8.4 mph NNW13.5 kmh NNW 13.2 mph21.2 kmh 29.21 in989.2 mb 0.00 in0.0 mm 0.00 in0.0 mm 0.11 in2.8 mm
10:55 AM 34.3°F1.3°C 24.8°F-4.0°C 69% 8.8 mph NW14.2 kmh NW 15.7 mph25.3 kmh 29.24 in990.2 mb 0.00 in0.0 mm 0.00 in0.0 mm 0.11 in2.8 mm
11:00 AM 34.5°F1.4°C 24.8°F-4.0°C 69% 8.0 mph NW12.9 kmh NW 15.7 mph25.3 kmh 29.24 in990.2 mb 0.00 in0.0 mm 0.00 in0.0 mm 0.11 in2.8 mm
11:05 AM 34.5°F1.4°C 24.8°F-4.0°C 69% 6.9 mph NW11.1 kmh NW 10.3 mph16.6 kmh 29.24 in990.2 mb 0.00 in0.0 mm 0.00 in0.0 mm 0.11 in2.8 mm
11:10 AM 34.9°F1.6°C 26.6°F-3.0°C 69% 9.0 mph WNW14.5 kmh WNW 13.9 mph22.4 kmh 29.24 in990.2 mb 0.00 in0.0 mm 0.00 in0.0 mm 0.11 in2.8 mm
11:15 AM 34.9°F1.6°C 26.6°F-3.0°C 68% 7.8 mph NW12.6 kmh NW 13.9 mph22.4 kmh 29.24 in990.2 mb 0.00 in0.0 mm 0.00 in0.0 mm 0.11 in2.8 mm
11:20 AM 35.2°F1.8°C 26.6°F-3.0°C 68% 7.8 mph NW12.6 kmh NW 12.8 mph20.6 kmh 29.24 in990.2 mb 0.00 in0.0 mm 0.00 in0.0 mm 0.11 in2.8 mm
11:25 AM 35.4°F1.9°C 26.6°F-3.0°C 68% 8.5 mph NW13.7 kmh NW 11.9 mph19.2 kmh 29.24 in990.2 mb 0.00 in0.0 mm 0.00 in0.0 mm 0.11 in2.8 mm
11:30 AM 35.6°F2.0°C 26.6°F-3.0°C 68% 6.4 mph NW10.3 kmh NW 8.1 mph13.0 kmh 29.24 in990.2 mb 0.00 in0.0 mm 0.00 in0.0 mm 0.11 in2.8 mm
11:35 AM 37.2°F2.9°C 28.4°F-2.0°C 68% 6.0 mph NW9.7 kmh NW 9.8 mph15.8 kmh 29.24 in990.2 mb 0.00 in0.0 mm 0.00 in0.0 mm 0.11 in2.8 mm
11:40 AM 38.1°F3.4°C 28.4°F-2.0°C 67% 6.3 mph NW10.1 kmh NW 13.2 mph21.2 kmh 29.24 in990.2 mb 0.00 in0.0 mm 0.00 in0.0 mm 0.11 in2.8 mm
11:45 AM 39.2°F4.0°C 28.4°F-2.0°C 66% 7.1 mph NW11.4 kmh NW 13.2 mph21.2 kmh 29.24 in990.2 mb 0.00 in0.0 mm 0.00 in0.0 mm 0.11 in2.8 mm
11:50 AM 40.3°F4.6°C 30.2°F-1.0°C 65% 7.0 mph NW11.3 kmh NW 11.0 mph17.7 kmh 29.24 in990.2 mb 0.00 in0.0 mm 0.00 in0.0 mm 0.11 in2.8 mm
11:55 AM 40.5°F4.7°C 30.2°F-1.0°C 65% 6.2 mph NW10.0 kmh NW 10.3 mph16.6 kmh 29.27 in991.2 mb 0.00 in0.0 mm 0.00 in0.0 mm 0.11 in2.8 mm
12:00 PM 40.5°F4.7°C 30.2°F-1.0°C 64% 7.6 mph NW12.2 kmh NW 15.4 mph24.8 kmh 29.27 in991.2 mb 0.00 in0.0 mm 0.00 in0.0 mm 0.11 in2.8 mm
12:05 PM 41.0°F5.0°C 30.2°F-1.0°C 64% 7.6 mph NW12.2 kmh NW 15.4 mph24.8 kmh 29.27 in991.2 mb 0.00 in0.0 mm 0.00 in0.0 mm 0.11 in2.8 mm
12:10 PM 40.3°F4.6°C 28.4°F-2.0°C 63% 7.7 mph NW12.4 kmh NW 11.2 mph18.0 kmh 29.24 in990.2 mb 0.00 in0.0 mm 0.00 in0.0 mm 0.11 in2.8 mm
12:15 PM 40.5°F4.7°C 28.4°F-2.0°C 63% 8.9 mph NW14.3 kmh NW 13.0 mph20.9 kmh 29.24 in990.2 mb 0.00 in0.0 mm 0.00 in0.0 mm 0.11 in2.8 mm
12:20 PM 41.9°F5.5°C 30.2°F-1.0°C 63% 7.1 mph NW11.4 kmh NW 13.0 mph20.9 kmh 29.24 in990.2 mb 0.00 in0.0 mm 0.00 in0.0 mm 0.11 in2.8 mm
12:25 PM 42.3°F5.7°C 30.2°F-1.0°C 63% 6.2 mph NW10.0 kmh NW 8.1 mph13.0 kmh 29.27 in991.2 mb 0.00 in0.0 mm 0.00 in0.0 mm 0.11 in2.8 mm
12:30 PM 42.6°F5.9°C 30.2°F-1.0°C 62% 7.4 mph NW11.9 kmh NW 12.1 mph19.5 kmh 29.27 in991.2 mb 0.00 in0.0 mm 0.00 in0.0 mm 0.11 in2.8 mm
12:35 PM 42.6°F5.9°C 30.2°F-1.0°C 62% 7.8 mph NW12.6 kmh NW 12.1 mph19.5 kmh 29.27 in991.2 mb 0.00 in0.0 mm 0.00 in0.0 mm 0.11 in2.8 mm
12:40 PM 42.6°F5.9°C 30.2°F-1.0°C 62% 6.7 mph NW10.8 kmh NW 12.1 mph19.5 kmh 29.27 in991.2 mb 0.00 in0.0 mm 0.00 in0.0 mm 0.11 in2.8 mm
12:45 PM 42.4°F5.8°C 30.2°F-1.0°C 61% 7.1 mph NNW11.4 kmh NNW 11.4 mph18.3 kmh 29.27 in991.2 mb 0.00 in0.0 mm 0.00 in0.0 mm 0.11 in2.8 mm
12:50 PM 42.4°F5.8°C 30.2°F-1.0°C 61% 7.9 mph NW12.7 kmh NW 11.4 mph18.3 kmh 29.27 in991.2 mb 0.00 in0.0 mm 0.00 in0.0 mm 0.11 in2.8 mm
12:55 PM 42.4°F5.8°C 30.2°F-1.0°C 60% 8.3 mph NW13.4 kmh NW 14.3 mph23.0 kmh 29.27 in991.2 mb 0.00 in0.0 mm 0.00 in0.0 mm 0.11 in2.8 mm
01:00 PM 42.4°F5.8°C 30.2°F-1.0°C 60% 7.8 mph NW12.6 kmh NW 14.3 mph23.0 kmh 29.27 in991.2 mb 0.00 in0.0 mm 0.00 in0.0 mm 0.11 in2.8 mm
01:05 PM 42.8°F6.0°C 30.2°F-1.0°C 60% 6.4 mph NW10.3 kmh NW 10.5 mph16.9 kmh 29.27 in991.2 mb 0.00 in0.0 mm 0.00 in0.0 mm 0.11 in2.8 mm
01:10 PM 42.6°F5.9°C 30.2°F-1.0°C 60% 6.0 mph NW9.7 kmh NW 8.7 mph14.0 kmh 29.30 in992.2 mb 0.00 in0.0 mm 0.00 in0.0 mm 0.11 in2.8 mm
01:15 PM 42.3°F5.7°C 30.2°F-1.0°C 60% 6.4 mph NW10.3 kmh NW 12.1 mph19.5 kmh 29.30 in992.2 mb 0.00 in0.0 mm 0.00 in0.0 mm 0.11 in2.8 mm
01:20 PM 41.9°F5.5°C 30.2°F-1.0°C 59% 7.5 mph NNW12.1 kmh NNW 12.1 mph19.5 kmh 29.30 in992.2 mb 0.00 in0.0 mm 0.00 in0.0 mm 0.11 in2.8 mm
01:25 PM 42.1°F5.6°C 30.2°F-1.0°C 59% 6.5 mph NNW10.5 kmh NNW 10.7 mph17.2 kmh 29.24 in990.2 mb 0.00 in0.0 mm 0.00 in0.0 mm 0.11 in2.8 mm
01:30 PM 41.7°F5.4°C 30.2°F-1.0°C 60% 5.1 mph NW8.2 kmh NW 8.5 mph13.7 kmh 29.24 in990.2 mb 0.00 in0.0 mm 0.00 in0.0 mm 0.11 in2.8 mm
01:35 PM 41.4°F5.2°C 28.4°F-2.0°C 60% 4.7 mph NW7.6 kmh NW 7.6 mph12.2 kmh 29.24 in990.2 mb 0.00 in0.0 mm 0.00 in0.0 mm 0.11 in2.8 mm
01:40 PM 41.2°F5.1°C 28.4°F-2.0°C 60% 5.7 mph NNW9.2 kmh NNW 10.1 mph16.3 kmh 29.30 in992.2 mb 0.00 in0.0 mm 0.00 in0.0 mm 0.11 in2.8 mm
01:45 PM 41.2°F5.1°C 28.4°F-2.0°C 60% 5.2 mph NW8.4 kmh NW 10.1 mph16.3 kmh 29.30 in992.2 mb 0.00 in0.0 mm 0.00 in0.0 mm 0.11 in2.8 mm
01:50 PM 40.6°F4.8°C 28.4°F-2.0°C 60% 5.1 mph W8.2 kmh W 7.4 mph11.9 kmh 29.30 in992.2 mb 0.00 in0.0 mm 0.00 in0.0 mm 0.11 in2.8 mm
01:55 PM 40.5°F4.7°C 28.4°F-2.0°C 60% 5.3 mph WNW8.5 kmh WNW 7.6 mph12.2 kmh 29.30 in992.2 mb 0.00 in0.0 mm 0.00 in0.0 mm 0.11 in2.8 mm
02:00 PM 40.5°F4.7°C 28.4°F-2.0°C 60% 4.7 mph NW7.6 kmh NW 7.6 mph12.2 kmh 29.30 in992.2 mb 0.00 in0.0 mm 0.00 in0.0 mm 0.11 in2.8 mm
02:05 PM 40.3°F4.6°C 28.4°F-2.0°C 60% 4.0 mph NW6.4 kmh NW 7.4 mph11.9 kmh 29.30 in992.2 mb 0.00 in0.0 mm 0.00 in0.0 mm 0.11 in2.8 mm
02:10 PM 40.1°F4.5°C 28.4°F-2.0°C 61% 3.8 mph NW6.1 kmh NW 6.3 mph10.1 kmh 29.30 in992.2 mb 0.00 in0.0 mm 0.00 in0.0 mm 0.11 in2.8 mm
02:15 PM 40.1°F4.5°C 28.4°F-2.0°C 61% 4.1 mph NNW6.6 kmh NNW 8.5 mph13.7 kmh 29.30 in992.2 mb 0.00 in0.0 mm 0.00 in0.0 mm 0.11 in2.8 mm
02:20 PM 39.9°F4.4°C 26.6°F-3.0°C 61% 4.1 mph NNW6.6 kmh NNW 8.5 mph13.7 kmh 29.30 in992.2 mb 0.00 in0.0 mm 0.00 in0.0 mm 0.11 in2.8 mm
02:25 PM 39.9°F4.4°C 26.6°F-3.0°C 61% 4.3 mph NW6.9 kmh NW 6.5 mph10.5 kmh 29.30 in992.2 mb 0.00 in0.0 mm 0.00 in0.0 mm 0.11 in2.8 mm
02:30 PM 39.7°F4.3°C 26.6°F-3.0°C 60% 4.7 mph NW7.6 kmh NW 6.5 mph10.5 kmh 29.30 in992.2 mb 0.00 in0.0 mm 0.00 in0.0 mm 0.11 in2.8 mm
02:35 PM 39.6°F4.2°C 26.6°F-3.0°C 60% 4.9 mph NW7.9 kmh NW 8.1 mph13.0 kmh 29.30 in992.2 mb 0.00 in0.0 mm 0.00 in0.0 mm 0.11 in2.8 mm
02:40 PM 39.2°F4.0°C 26.6°F-3.0°C 60% 4.6 mph NW7.4 kmh NW 8.1 mph13.0 kmh 29.30 in992.2 mb 0.00 in0.0 mm 0.00 in0.0 mm 0.11 in2.8 mm
02:45 PM 39.2°F4.0°C 26.6°F-3.0°C 60% 3.9 mph NW6.3 kmh NW 7.8 mph12.6 kmh 29.30 in992.2 mb 0.00 in0.0 mm 0.00 in0.0 mm 0.11 in2.8 mm
02:50 PM 39.0°F3.9°C 26.6°F-3.0°C 60% 3.6 mph WNW5.8 kmh WNW 7.8 mph12.6 kmh 29.30 in992.2 mb 0.00 in0.0 mm 0.00 in0.0 mm 0.11 in2.8 mm
02:55 PM 38.8°F3.8°C 26.6°F-3.0°C 60% 4.3 mph NW6.9 kmh NW 6.3 mph10.1 kmh 29.30 in992.2 mb 0.00 in0.0 mm 0.00 in0.0 mm 0.11 in2.8 mm
03:00 PM 38.8°F3.8°C 26.6°F-3.0°C 60% 4.2 mph NW6.8 kmh NW 6.3 mph10.1 kmh 29.30 in992.2 mb 0.00 in0.0 mm 0.00 in0.0 mm 0.11 in2.8 mm
03:05 PM 38.7°F3.7°C 26.6°F-3.0°C 61% 3.3 mph W5.3 kmh W 6.0 mph9.7 kmh 29.30 in992.2 mb 0.00 in0.0 mm 0.00 in0.0 mm 0.11 in2.8 mm
03:10 PM 38.3°F3.5°C 26.6°F-3.0°C 60% 3.6 mph W5.8 kmh W 6.3 mph10.1 kmh 29.33 in993.2 mb 0.00 in0.0 mm 0.00 in0.0 mm 0.11 in2.8 mm
03:15 PM 38.3°F3.5°C 26.6°F-3.0°C 61% 4.6 mph WNW7.4 kmh WNW 7.8 mph12.6 kmh 29.33 in993.2 mb 0.00 in0.0 mm 0.00 in0.0 mm 0.11 in2.8 mm
03:20 PM 38.1°F3.4°C 26.6°F-3.0°C 60% 4.1 mph WNW6.6 kmh WNW 7.8 mph12.6 kmh 29.33 in993.2 mb 0.00 in0.0 mm 0.00 in0.0 mm 0.11 in2.8 mm
03:25 PM 37.9°F3.3°C 26.6°F-3.0°C 60% 3.0 mph WNW4.8 kmh WNW 4.5 mph7.2 kmh 29.33 in993.2 mb 0.00 in0.0 mm 0.00 in0.0 mm 0.11 in2.8 mm
03:30 PM 37.8°F3.2°C 26.6°F-3.0°C 60% 3.6 mph WNW5.8 kmh WNW 6.5 mph10.5 kmh 29.33 in993.2 mb 0.00 in0.0 mm 0.00 in0.0 mm 0.11 in2.8 mm
03:35 PM 37.6°F3.1°C 24.8°F-4.0°C 60% 3.6 mph W5.8 kmh W 6.5 mph10.5 kmh 29.33 in993.2 mb 0.00 in0.0 mm 0.00 in0.0 mm 0.11 in2.8 mm
03:40 PM 37.2°F2.9°C 24.8°F-4.0°C 61% 3.6 mph W5.8 kmh W 7.8 mph12.6 kmh 29.33 in993.2 mb 0.00 in0.0 mm 0.00 in0.0 mm 0.11 in2.8 mm
03:45 PM 37.0°F2.8°C 24.8°F-4.0°C 61% 3.4 mph W5.5 kmh W 7.8 mph12.6 kmh 29.33 in993.2 mb 0.00 in0.0 mm 0.00 in0.0 mm 0.11 in2.8 mm
03:50 PM 36.7°F2.6°C 24.8°F-4.0°C 61% 2.5 mph W4.0 kmh W 4.0 mph6.4 kmh 29.33 in993.2 mb 0.00 in0.0 mm 0.00 in0.0 mm 0.11 in2.8 mm
03:55 PM 36.7°F2.6°C 24.8°F-4.0°C 61% 2.2 mph WNW3.5 kmh WNW 3.6 mph5.8 kmh 29.33 in993.2 mb 0.00 in0.0 mm 0.00 in0.0 mm 0.11 in2.8 mm
04:00 PM 36.3°F2.4°C 24.8°F-4.0°C 61% 1.6 mph W2.6 kmh W 3.1 mph5.0 kmh 29.33 in993.2 mb 0.00 in0.0 mm 0.00 in0.0 mm 0.11 in2.8 mm
04:05 PM 36.0°F2.2°C 23.0°F-5.0°C 61% 1.5 mph W2.4 kmh W 2.7 mph4.3 kmh 29.33 in993.2 mb 0.00 in0.0 mm 0.00 in0.0 mm 0.11 in2.8 mm
04:10 PM 36.0°F2.2°C 23.0°F-5.0°C 61% 1.9 mph WNW3.1 kmh WNW 2.9 mph4.7 kmh 29.33 in993.2 mb 0.00 in0.0 mm 0.00 in0.0 mm 0.11 in2.8 mm
04:15 PM 35.6°F2.0°C 23.0°F-5.0°C 61% 2.0 mph WNW3.2 kmh WNW 3.6 mph5.8 kmh 29.33 in993.2 mb 0.00 in0.0 mm 0.00 in0.0 mm 0.11 in2.8 mm
04:20 PM 35.4°F1.9°C 23.0°F-5.0°C 62% 2.1 mph WNW3.4 kmh WNW 3.8 mph6.1 kmh 29.33 in993.2 mb 0.00 in0.0 mm 0.00 in0.0 mm 0.11 in2.8 mm
04:25 PM 35.2°F1.8°C 23.0°F-5.0°C 62% 2.0 mph W3.2 kmh W 3.8 mph6.1 kmh 29.33 in993.2 mb 0.00 in0.0 mm 0.00 in0.0 mm 0.11 in2.8 mm
04:30 PM 34.9°F1.6°C 23.0°F-5.0°C 62% 1.3 mph WSW2.1 kmh WSW 2.5 mph4.0 kmh 29.33 in993.2 mb 0.00 in0.0 mm 0.00 in0.0 mm 0.11 in2.8 mm
04:35 PM 34.5°F1.4°C 23.0°F-5.0°C 62% 1.1 mph WSW1.8 kmh WSW 2.5 mph4.0 kmh 29.33 in993.2 mb 0.00 in0.0 mm 0.00 in0.0 mm 0.11 in2.8 mm
04:40 PM 34.2°F1.2°C 23.0°F-5.0°C 63% 1.3 mph WNW2.1 kmh WNW 2.5 mph4.0 kmh 29.33 in993.2 mb 0.00 in0.0 mm 0.00 in0.0 mm 0.11 in2.8 mm
04:45 PM 33.6°F0.9°C 23.0°F-5.0°C 63% 1.0 mph WNW1.6 kmh WNW 2.5 mph4.0 kmh 29.33 in993.2 mb 0.00 in0.0 mm 0.00 in0.0 mm 0.11 in2.8 mm
04:50 PM 33.3°F0.7°C 23.0°F-5.0°C 63% 0.4 mph W0.6 kmh W 0.9 mph1.4 kmh 29.33 in993.2 mb 0.00 in0.0 mm 0.00 in0.0 mm 0.11 in2.8 mm
04:55 PM 32.9°F0.5°C 23.0°F-5.0°C 64% 0.2 mph WSW0.3 kmh WSW 0.9 mph1.4 kmh 29.33 in993.2 mb 0.00 in0.0 mm 0.00 in0.0 mm 0.11 in2.8 mm
05:00 PM 32.4°F0.2°C 21.2°F-6.0°C 64% 0.3 mph WNW0.5 kmh WNW 1.3 mph2.1 kmh 29.33 in993.2 mb 0.00 in0.0 mm 0.00 in0.0 mm 0.11 in2.8 mm
05:05 PM 32.2°F0.1°C 21.2°F-6.0°C 64% 0.6 mph WNW1.0 kmh WNW 1.3 mph2.1 kmh 29.33 in993.2 mb 0.00 in0.0 mm 0.00 in0.0 mm 0.11 in2.8 mm
05:10 PM 32.0°F0.0°C 21.2°F-6.0°C 65% 0.6 mph WNW1.0 kmh WNW 1.3 mph2.1 kmh 29.33 in993.2 mb 0.00 in0.0 mm 0.00 in0.0 mm 0.11 in2.8 mm
05:15 PM 31.6°F-0.2°C 21.2°F-6.0°C 65% 0.6 mph WSW1.0 kmh WSW 1.6 mph2.6 kmh 29.33 in993.2 mb 0.00 in0.0 mm 0.00 in0.0 mm 0.11 in2.8 mm
05:20 PM 31.6°F-0.2°C 21.2°F-6.0°C 65% 0.9 mph WSW1.4 kmh WSW 2.5 mph4.0 kmh 29.33 in993.2 mb 0.00 in0.0 mm 0.00 in0.0 mm 0.11 in2.8 mm
05:25 PM 32.0°F0.0°C 21.2°F-6.0°C 66% 1.8 mph W2.9 kmh W 3.6 mph5.8 kmh 29.33 in993.2 mb 0.00 in0.0 mm 0.00 in0.0 mm 0.11 in2.8 mm
05:30 PM 32.5°F0.3°C 23.0°F-5.0°C 65% 2.7 mph W4.3 kmh W 3.6 mph5.8 kmh 29.33 in993.2 mb 0.00 in0.0 mm 0.00 in0.0 mm 0.11 in2.8 mm
05:35 PM 32.2°F0.1°C 23.0°F-5.0°C 65% 2.2 mph WSW3.5 kmh WSW 3.6 mph5.8 kmh 29.33 in993.2 mb 0.00 in0.0 mm 0.00 in0.0 mm 0.11 in2.8 mm
05:40 PM 32.0°F0.0°C 21.2°F-6.0°C 65% 0.9 mph WSW1.4 kmh WSW 3.6 mph5.8 kmh 29.33 in993.2 mb 0.00 in0.0 mm 0.00 in0.0 mm 0.11 in2.8 mm
05:45 PM 32.0°F0.0°C 21.2°F-6.0°C 65% 0.6 mph WSW1.0 kmh WSW 1.1 mph1.8 kmh 29.33 in993.2 mb 0.00 in0.0 mm 0.00 in0.0 mm 0.11 in2.8 mm
05:50 PM 31.5°F-0.3°C 19.4°F-7.0°C 65% 0.5 mph WSW0.8 kmh WSW 1.1 mph1.8 kmh 29.33 in993.2 mb 0.00 in0.0 mm 0.00 in0.0 mm 0.11 in2.8 mm
05:55 PM 31.3°F-0.4°C 19.4°F-7.0°C 66% 0.8 mph WSW1.3 kmh WSW 2.5 mph4.0 kmh 29.33 in993.2 mb 0.00 in0.0 mm 0.00 in0.0 mm 0.11 in2.8 mm
06:00 PM 31.1°F-0.5°C 19.4°F-7.0°C 66% 1.4 mph WSW2.3 kmh WSW 2.5 mph4.0 kmh 29.33 in993.2 mb 0.00 in0.0 mm 0.00 in0.0 mm 0.11 in2.8 mm
06:05 PM 30.9°F-0.6°C 19.4°F-7.0°C 66% 1.0 mph W1.6 kmh W 3.1 mph5.0 kmh 29.33 in993.2 mb 0.00 in0.0 mm 0.00 in0.0 mm 0.11 in2.8 mm
06:10 PM 30.2°F-1.0°C 19.4°F-7.0°C 66% 0.4 mph W0.6 kmh W 3.1 mph5.0 kmh 29.33 in993.2 mb 0.00 in0.0 mm 0.00 in0.0 mm 0.11 in2.8 mm
06:15 PM 29.8°F-1.2°C 19.4°F-7.0°C 67% 0.3 mph W0.5 kmh W 0.9 mph1.4 kmh 29.33 in993.2 mb 0.00 in0.0 mm 0.00 in0.0 mm 0.11 in2.8 mm
06:20 PM 29.7°F-1.3°C 19.4°F-7.0°C 67% 0.4 mph WSW0.6 kmh WSW 0.9 mph1.4 kmh 29.33 in993.2 mb 0.00 in0.0 mm 0.00 in0.0 mm 0.11 in2.8 mm
06:25 PM 29.5°F-1.4°C 19.4°F-7.0°C 67% 0.4 mph WSW0.6 kmh WSW 1.3 mph2.1 kmh 29.33 in993.2 mb 0.00 in0.0 mm 0.00 in0.0 mm 0.11 in2.8 mm
06:30 PM 29.1°F-1.6°C 19.4°F-7.0°C 67% 0.2 mph WSW0.3 kmh WSW 1.3 mph2.1 kmh 29.33 in993.2 mb 0.00 in0.0 mm 0.00 in0.0 mm 0.11 in2.8 mm
06:35 PM 29.1°F-1.6°C 19.4°F-7.0°C 67% Calm Calm -- 29.33 in993.2 mb 0.00 in0.0 mm 0.00 in0.0 mm 0.11 in2.8 mm
06:40 PM 28.8°F-1.8°C 19.4°F-7.0°C 68% Calm Calm -- 29.33 in993.2 mb 0.00 in0.0 mm 0.00 in0.0 mm 0.11 in2.8 mm
06:45 PM 28.8°F-1.8°C 19.4°F-7.0°C 68% 0.1 mph W0.2 kmh W 0.9 mph1.4 kmh 29.33 in993.2 mb 0.00 in0.0 mm 0.00 in0.0 mm 0.11 in2.8 mm
06:50 PM 28.4°F-2.0°C 17.6°F-8.0°C 68% 0.1 mph W0.2 kmh W 0.9 mph1.4 kmh 29.33 in993.2 mb 0.00 in0.0 mm 0.00 in0.0 mm 0.11 in2.8 mm
06:55 PM 28.4°F-2.0°C 17.6°F-8.0°C 68% Calm Calm -- 29.33 in993.2 mb 0.00 in0.0 mm 0.00 in0.0 mm 0.11 in2.8 mm
07:00 PM 28.2°F-2.1°C 17.6°F-8.0°C 69% Calm Calm -- 29.33 in993.2 mb 0.00 in0.0 mm 0.00 in0.0 mm 0.11 in2.8 mm
07:05 PM 28.0°F-2.2°C 17.6°F-8.0°C 69% Calm Calm -- 29.33 in993.2 mb 0.00 in0.0 mm 0.00 in0.0 mm 0.11 in2.8 mm
07:10 PM 27.9°F-2.3°C 17.6°F-8.0°C 69% Calm Calm -- 29.33 in993.2 mb 0.00 in0.0 mm 0.00 in0.0 mm 0.11 in2.8 mm
07:15 PM 28.2°F-2.1°C 17.6°F-8.0°C 69% 0.2 mph WSW0.3 kmh WSW 0.9 mph1.4 kmh 29.33 in993.2 mb 0.00 in0.0 mm 0.00 in0.0 mm 0.11 in2.8 mm
07:20 PM 28.2°F-2.1°C 17.6°F-8.0°C 69% 0.4 mph WSW0.6 kmh WSW 0.9 mph1.4 kmh 29.33 in993.2 mb 0.00 in0.0 mm 0.00 in0.0 mm 0.11 in2.8 mm
07:25 PM 28.0°F-2.2°C 17.6°F-8.0°C 69% 0.2 mph WSW0.3 kmh WSW 0.9 mph1.4 kmh 29.33 in993.2 mb 0.00 in0.0 mm 0.00 in0.0 mm 0.11 in2.8 mm
07:30 PM 28.0°F-2.2°C 17.6°F-8.0°C 69% 0.3 mph W0.5 kmh W 2.0 mph3.2 kmh 29.33 in993.2 mb 0.00 in0.0 mm 0.00 in0.0 mm 0.11 in2.8 mm
07:35 PM 28.2°F-2.1°C 17.6°F-8.0°C 69% 0.6 mph W1.0 kmh W 2.0 mph3.2 kmh 29.33 in993.2 mb 0.00 in0.0 mm 0.00 in0.0 mm 0.11 in2.8 mm
07:40 PM 28.2°F-2.1°C 17.6°F-8.0°C 69% 0.6 mph W1.0 kmh W 1.6 mph2.6 kmh 29.33 in993.2 mb 0.00 in0.0 mm 0.00 in0.0 mm 0.11 in2.8 mm
07:45 PM 28.4°F-2.0°C 17.6°F-8.0°C 69% 0.3 mph W0.5 kmh W 1.6 mph2.6 kmh 29.33 in993.2 mb 0.00 in0.0 mm 0.00 in0.0 mm 0.11 in2.8 mm
07:50 PM 28.4°F-2.0°C 17.6°F-8.0°C 69% 0.3 mph W0.5 kmh W 1.1 mph1.8 kmh 29.33 in993.2 mb 0.00 in0.0 mm 0.00 in0.0 mm 0.11 in2.8 mm
07:55 PM 28.2°F-2.1°C 17.6°F-8.0°C 69% 0.4 mph W0.6 kmh W 1.1 mph1.8 kmh 29.15 in987.1 mb 0.00 in0.0 mm 0.00 in0.0 mm 0.11 in2.8 mm
08:00 PM 27.9°F-2.3°C 17.6°F-8.0°C 69% 0.5 mph WNW0.8 kmh WNW 1.1 mph1.8 kmh 29.15 in987.1 mb 0.00 in0.0 mm 0.00 in0.0 mm 0.11 in2.8 mm
08:05 PM 27.7°F-2.4°C 17.6°F-8.0°C 69% 0.4 mph WNW0.6 kmh WNW 1.1 mph1.8 kmh 29.15 in987.1 mb 0.00 in0.0 mm 0.00 in0.0 mm 0.11 in2.8 mm
08:10 PM 27.5°F-2.5°C 17.6°F-8.0°C 69% 0.2 mph NW0.3 kmh NW 0.9 mph1.4 kmh 29.30 in992.2 mb 0.00 in0.0 mm 0.00 in0.0 mm 0.11 in2.8 mm
08:15 PM 27.5°F-2.5°C 17.6°F-8.0°C 69% 0.2 mph WNW0.3 kmh WNW 0.9 mph1.4 kmh 29.30 in992.2 mb 0.00 in0.0 mm 0.00 in0.0 mm 0.11 in2.8 mm
08:20 PM 27.3°F-2.6°C 17.6°F-8.0°C 69% 0.2 mph W0.3 kmh W 0.9 mph1.4 kmh 29.30 in992.2 mb 0.00 in0.0 mm 0.00 in0.0 mm 0.11 in2.8 mm
08:25 PM 27.1°F-2.7°C 17.6°F-8.0°C 70% 0.2 mph W0.3 kmh W 1.1 mph1.8 kmh 29.30 in992.2 mb 0.00 in0.0 mm 0.00 in0.0 mm 0.11 in2.8 mm
08:30 PM 27.5°F-2.5°C 17.6°F-8.0°C 70% 0.2 mph W0.3 kmh W 1.1 mph1.8 kmh 29.30 in992.2 mb 0.00 in0.0 mm 0.00 in0.0 mm 0.11 in2.8 mm
08:35 PM 27.1°F-2.7°C 17.6°F-8.0°C 70% Calm Calm -- 29.30 in992.2 mb 0.00 in0.0 mm 0.00 in0.0 mm 0.11 in2.8 mm
08:40 PM 27.3°F-2.6°C 17.6°F-8.0°C 70% Calm Calm -- 29.30 in992.2 mb 0.00 in0.0 mm 0.00 in0.0 mm 0.11 in2.8 mm
08:45 PM 27.3°F-2.6°C 17.6°F-8.0°C 70% Calm Calm -- 29.30 in992.2 mb 0.00 in0.0 mm 0.00 in0.0 mm 0.11 in2.8 mm
08:50 PM 27.1°F-2.7°C 17.6°F-8.0°C 70% 0.1 mph SE0.2 kmh SE 0.9 mph1.4 kmh 29.30 in992.2 mb 0.00 in0.0 mm 0.00 in0.0 mm 0.11 in2.8 mm
08:55 PM 27.0°F-2.8°C 17.6°F-8.0°C 70% 0.2 mph SE0.3 kmh SE 0.9 mph1.4 kmh 29.30 in992.2 mb 0.00 in0.0 mm 0.00 in0.0 mm 0.11 in2.8 mm
09:00 PM 27.0°F-2.8°C 17.6°F-8.0°C 70% 0.2 mph SE0.3 kmh SE 0.9 mph1.4 kmh 29.30 in992.2 mb 0.00 in0.0 mm 0.00 in0.0 mm 0.11 in2.8 mm
09:05 PM 27.1°F-2.7°C 17.6°F-8.0°C 71% 0.1 mph SE0.2 kmh SE 0.9 mph1.4 kmh 29.30 in992.2 mb 0.00 in0.0 mm 0.00 in0.0 mm 0.11 in2.8 mm
09:10 PM 27.0°F-2.8°C 17.6°F-8.0°C 71% Calm Calm -- 29.30 in992.2 mb 0.00 in0.0 mm 0.00 in0.0 mm 0.11 in2.8 mm
09:15 PM 27.3°F-2.6°C 17.6°F-8.0°C 71% Calm Calm -- 29.30 in992.2 mb 0.00 in0.0 mm 0.00 in0.0 mm 0.11 in2.8 mm
09:20 PM 27.3°F-2.6°C 17.6°F-8.0°C 71% Calm Calm -- 29.30 in992.2 mb 0.00 in0.0 mm 0.00 in0.0 mm 0.11 in2.8 mm
09:25 PM 27.0°F-2.8°C 17.6°F-8.0°C 71% Calm Calm -- 29.30 in992.2 mb 0.00 in0.0 mm 0.00 in0.0 mm 0.11 in2.8 mm
09:30 PM 27.0°F-2.8°C 17.6°F-8.0°C 70% Calm Calm -- 29.30 in992.2 mb 0.00 in0.0 mm 0.00 in0.0 mm 0.11 in2.8 mm
09:35 PM 26.8°F-2.9°C 17.6°F-8.0°C 70% Calm Calm -- 29.30 in992.2 mb 0.00 in0.0 mm 0.00 in0.0 mm 0.11 in2.8 mm
09:40 PM 26.6°F-3.0°C 17.6°F-8.0°C 70% Calm Calm -- 29.27 in991.2 mb 0.00 in0.0 mm 0.00 in0.0 mm 0.11 in2.8 mm
09:45 PM 26.6°F-3.0°C 17.6°F-8.0°C 71% 0.1 mph ESE0.2 kmh ESE 1.1 mph1.8 kmh 29.27 in991.2 mb 0.00 in0.0 mm 0.00 in0.0 mm 0.11 in2.8 mm
09:50 PM 26.4°F-3.1°C 17.6°F-8.0°C 71% 0.1 mph ESE0.2 kmh ESE 1.1 mph1.8 kmh 29.27 in991.2 mb 0.00 in0.0 mm 0.00 in0.0 mm 0.11 in2.8 mm
09:55 PM 26.2°F-3.2°C 17.6°F-8.0°C 71% Calm Calm -- 29.27 in991.2 mb 0.00 in0.0 mm 0.00 in0.0 mm 0.11 in2.8 mm
10:00 PM 26.2°F-3.2°C 17.6°F-8.0°C 71% Calm Calm -- 29.27 in991.2 mb 0.00 in0.0 mm 0.00 in0.0 mm 0.11 in2.8 mm
10:05 PM 26.4°F-3.1°C 17.6°F-8.0°C 71% Calm Calm -- 29.27 in991.2 mb 0.00 in0.0 mm 0.00 in0.0 mm 0.11 in2.8 mm
10:10 PM 26.4°F-3.1°C 17.6°F-8.0°C 71% Calm Calm -- 29.27 in991.2 mb 0.00 in0.0 mm 0.00 in0.0 mm 0.11 in2.8 mm
10:15 PM 26.8°F-2.9°C 17.6°F-8.0°C 72% Calm Calm -- 29.27 in991.2 mb 0.00 in0.0 mm 0.00 in0.0 mm 0.11 in2.8 mm
10:20 PM 26.4°F-3.1°C 17.6°F-8.0°C 72% 0.1 mph SSE0.2 kmh SSE 1.3 mph2.1 kmh 29.27 in991.2 mb 0.00 in0.0 mm 0.00 in0.0 mm 0.11 in2.8 mm
10:25 PM 26.4°F-3.1°C 17.6°F-8.0°C 71% 0.1 mph SSE0.2 kmh SSE 1.3 mph2.1 kmh 29.27 in991.2 mb 0.00 in0.0 mm 0.00 in0.0 mm 0.11 in2.8 mm
10:30 PM 26.6°F-3.0°C 17.6°F-8.0°C 72% Calm Calm -- 29.27 in991.2 mb 0.00 in0.0 mm 0.00 in0.0 mm 0.11 in2.8 mm
10:35 PM 26.2°F-3.2°C 17.6°F-8.0°C 71% Calm Calm -- 29.27 in991.2 mb 0.00 in0.0 mm 0.00 in0.0 mm 0.11 in2.8 mm
10:40 PM 26.2°F-3.2°C 17.6°F-8.0°C 72% Calm Calm -- 29.27 in991.2 mb 0.00 in0.0 mm 0.00 in0.0 mm 0.11 in2.8 mm
10:45 PM 26.1°F-3.3°C 17.6°F-8.0°C 72% Calm Calm -- 29.27 in991.2 mb 0.00 in0.0 mm 0.00 in0.0 mm 0.11 in2.8 mm
10:50 PM 26.1°F-3.3°C 17.6°F-8.0°C 72% Calm Calm -- 29.27 in991.2 mb 0.00 in0.0 mm 0.00 in0.0 mm 0.11 in2.8 mm
10:55 PM 25.9°F-3.4°C 17.6°F-8.0°C 72% Calm Calm -- 29.27 in991.2 mb 0.00 in0.0 mm 0.00 in0.0 mm 0.11 in2.8 mm
11:00 PM 25.7°F-3.5°C 17.6°F-8.0°C 72% Calm Calm -- 29.27 in991.2 mb 0.00 in0.0 mm 0.00 in0.0 mm 0.11 in2.8 mm
11:05 PM 26.1°F-3.3°C 17.6°F-8.0°C 72% Calm Calm -- 29.27 in991.2 mb 0.00 in0.0 mm 0.00 in0.0 mm 0.11 in2.8 mm
11:10 PM 26.4°F-3.1°C 17.6°F-8.0°C 73% Calm Calm -- 29.24 in990.2 mb 0.00 in0.0 mm 0.00 in0.0 mm 0.11 in2.8 mm
11:15 PM 26.4°F-3.1°C 17.6°F-8.0°C 73% Calm Calm -- 29.24 in990.2 mb 0.00 in0.0 mm 0.00 in0.0 mm 0.11 in2.8 mm
11:20 PM 26.4°F-3.1°C 17.6°F-8.0°C 73% 0.1 mph W0.2 kmh W 0.9 mph1.4 kmh 29.24 in990.2 mb 0.00 in0.0 mm 0.00 in0.0 mm 0.11 in2.8 mm
11:25 PM 26.2°F-3.2°C 17.6°F-8.0°C 73% 0.1 mph W0.2 kmh W 0.9 mph1.4 kmh 29.24 in990.2 mb 0.00 in0.0 mm 0.00 in0.0 mm 0.11 in2.8 mm
11:30 PM 26.4°F-3.1°C 17.6°F-8.0°C 73% Calm Calm -- 29.24 in990.2 mb 0.00 in0.0 mm 0.00 in0.0 mm 0.11 in2.8 mm
11:35 PM 26.6°F-3.0°C 17.6°F-8.0°C 73% 0.3 mph NNE0.5 kmh NNE 1.1 mph1.8 kmh 29.24 in990.2 mb 0.00 in0.0 mm 0.00 in0.0 mm 0.11 in2.8 mm
11:40 PM 26.2°F-3.2°C 17.6°F-8.0°C 73% 0.3 mph NNE0.5 kmh NNE 1.1 mph1.8 kmh 29.21 in989.2 mb 0.00 in0.0 mm 0.00 in0.0 mm 0.11 in2.8 mm
11:45 PM 26.1°F-3.3°C 17.6°F-8.0°C 73% 0.2 mph N0.3 kmh N 1.1 mph1.8 kmh 29.21 in989.2 mb 0.00 in0.0 mm 0.00 in0.0 mm 0.11 in2.8 mm
11:50 PM 26.1°F-3.3°C 17.6°F-8.0°C 73% 0.4 mph N0.6 kmh N 1.1 mph1.8 kmh 29.21 in989.2 mb 0.00 in0.0 mm 0.00 in0.0 mm 0.11 in2.8 mm
11:55 PM 26.2°F-3.2°C 17.6°F-8.0°C 74% 0.6 mph W1.0 kmh W 2.0 mph3.2 kmh 29.24 in990.2 mb 0.00 in0.0 mm 0.00 in0.0 mm 0.11 in2.8 mm